Time;durP1;ratioP1;P1;durP2;ratioP2;P2;SDS_P1;SDS_P2;PMS_P1;PMS_P2;Temp;Humidity;BMP_temperature;BMP_pressure;BME280_temperature;BME280_humidity;BME280_pressure;Samples;Min_cycle;Max_cycle;Signal;HPM_P1;HPM_P2
2022/01/20 00:03:21;;;;;;;41.63;18.42;;;5.00;99.90;;;;;;4963755;29;20004;-89
2022/01/20 00:27:16;;;;;;;36.07;17.50;;;4.90;99.90;;;;;;4962321;29;20031;-88
2022/01/20 00:32:20;;;;;;;38.83;15.68;;;4.80;99.90;;;;;;4961921;29;20016;-90
2022/01/20 00:37:30;;;;;;;35.72;15.55;;;4.70;99.90;;;;;;4962129;29;20040;-89
2022/01/20 00:39:57;;;;;;;33.08;14.30;;;4.80;99.90;;;;;;4961646;29;20016;-89
2022/01/20 00:42:22;;;;;;;34.35;15.07;;;4.80;99.90;;;;;;4977272;28;20071;-87
2022/01/20 00:44:49;;;;;;;29.05;16.02;;;4.80;99.90;;;;;;4961185;29;20016;-89
2022/01/20 00:47:16;;;;;;;27.95;13.95;;;4.90;99.90;;;;;;4961641;29;20024;-87
2022/01/20 00:49:46;;;;;;;30.15;14.65;;;4.90;99.90;;;;;;4961090;29;20028;-89
2022/01/20 00:52:12;;;;;;;27.27;13.50;;;4.90;99.90;;;;;;4960384;29;20039;-89
2022/01/20 00:54:38;;;;;;;27.52;13.95;;;4.80;99.90;;;;;;4960219;28;20103;-88
2022/01/20 00:57:04;;;;;;;28.23;14.27;;;4.90;99.90;;;;;;4959452;29;20026;-88
2022/01/20 00:59:31;;;;;;;28.23;13.30;;;4.80;99.90;;;;;;4959993;29;20043;-89
2022/01/20 01:02:02;;;;;;;25.15;13.18;;;4.90;99.90;;;;;;4975059;29;20035;-89
2022/01/20 01:04:29;;;;;;;27.08;11.50;;;4.90;99.90;;;;;;4959038;29;20043;-88
2022/01/20 01:07:17;;;;;;;26.95;11.98;;;5.00;99.90;;;;;;4957365;29;20086;-89
2022/01/20 01:09:44;;;;;;;20.58;10.73;;;5.00;99.90;;;;;;4957186;29;20027;-88
2022/01/20 01:12:20;;;;;;;25.23;12.10;;;5.10;99.90;;;;;;4959492;29;20055;-89
2022/01/20 01:14:50;;;;;;;33.40;11.50;;;5.20;99.90;;;;;;4959858;29;20087;-90
2022/01/20 01:22:30;;;;;;;23.98;10.73;;;5.10;99.90;;;;;;4960621;29;20055;-89
2022/01/20 01:24:57;;;;;;;26.83;11.10;;;5.10;99.90;;;;;;4960510;29;20020;-89
2022/01/20 01:27:24;;;;;;;22.80;11.43;;;5.10;99.90;;;;;;4959476;29;20066;-89
2022/01/20 01:35:11;;;;;;;24.63;11.52;;;5.10;99.90;;;;;;4960138;29;20024;-88
2022/01/20 01:38:25;;;;;;;26.88;11.30;;;5.10;99.90;;;;;;4960755;29;20022;-88
2022/01/20 01:40:29;;;;;;;22.67;10.25;;;5.10;99.90;;;;;;4959667;29;20071;-90
2022/01/20 01:42:55;;;;;;;22.80;11.43;;;5.10;99.90;;;;;;4957326;29;20051;-88
2022/01/20 01:45:24;;;;;;;23.45;12.15;;;5.10;99.90;;;;;;4973005;28;20035;-88
2022/01/20 01:47:51;;;;;;;21.13;10.57;;;5.20;99.90;;;;;;4958581;29;20051;-88
2022/01/20 01:50:21;;;;;;;19.92;10.50;;;5.20;99.90;;;;;;4958322;29;20028;-88
2022/01/20 01:52:47;;;;;;;22.45;10.68;;;5.20;99.90;;;;;;4958489;29;20047;-88
2022/01/20 01:55:14;;;;;;;28.23;11.02;;;5.20;99.90;;;;;;4956078;29;20031;-90
2022/01/20 01:57:43;;;;;;;20.25;11.05;;;5.20;99.90;;;;;;4943294;29;20059;-87
2022/01/20 02:00:12;;;;;;;19.95;9.80;;;5.10;99.90;;;;;;4975296;28;20202;-89
2022/01/20 02:02:44;;;;;;;27.90;12.07;;;5.10;99.90;;;;;;4959789;29;20051;-88
2022/01/20 02:05:18;;;;;;;21.77;10.43;;;5.00;99.90;;;;;;4976154;28;20066;-90
2022/01/20 02:19:06;;;;;;;19.52;9.35;;;5.10;99.90;;;;;;4958664;29;20040;-88
2022/01/20 02:21:56;;;;;;;19.38;9.43;;;5.20;99.90;;;;;;4957522;29;20051;-90
2022/01/20 02:24:25;;;;;;;20.23;9.32;;;5.30;99.90;;;;;;4957242;29;20028;-88
2022/01/20 02:26:51;;;;;;;20.98;9.95;;;5.30;99.90;;;;;;4957330;29;20040;-89
2022/01/20 02:29:26;;;;;;;17.92;9.93;;;5.30;99.90;;;;;;4956280;29;20040;-87
2022/01/20 02:32:00;;;;;;;20.23;9.45;;;5.20;99.90;;;;;;4955737;29;20035;-88
2022/01/20 02:34:30;;;;;;;17.98;8.80;;;5.30;99.90;;;;;;4958739;29;20036;-88
2022/01/20 02:36:58;;;;;;;17.77;8.57;;;5.30;99.90;;;;;;4974373;28;20039;-87
2022/01/20 02:44:54;;;;;;;21.08;8.27;;;5.20;99.90;;;;;;4956115;29;20027;-88
2022/01/20 02:47:25;;;;;;;16.35;7.93;;;5.20;99.90;;;;;;4958120;29;20054;-89
2022/01/20 02:49:52;;;;;;;19.05;8.00;;;5.20;99.90;;;;;;4941819;29;20032;-87
2022/01/20 02:52:19;;;;;;;18.75;6.90;;;5.20;99.90;;;;;;4958499;29;20038;-88
2022/01/20 02:54:45;;;;;;;14.32;7.15;;;5.20;99.90;;;;;;4960596;29;20071;-88
2022/01/20 02:57:11;;;;;;;14.38;7.47;;;5.30;99.90;;;;;;4963460;29;20023;-88
2022/01/20 02:59:38;;;;;;;15.95;7.38;;;5.30;99.90;;;;;;4963430;29;20022;-89
2022/01/20 03:02:06;;;;;;;15.00;7.25;;;5.30;99.90;;;;;;4947570;29;20027;-89
2022/01/20 03:04:32;;;;;;;14.93;7.18;;;5.30;99.90;;;;;;4963280;29;20076;-89
2022/01/20 03:07:01;;;;;;;11.13;6.47;;;5.40;99.90;;;;;;4947297;29;20107;-91
2022/01/20 03:09:27;;;;;;;12.10;6.55;;;5.30;99.90;;;;;;4962047;29;20043;-88
2022/01/20 03:11:53;;;;;;;14.95;6.57;;;5.40;99.90;;;;;;4961892;29;20024;-89
2022/01/20 03:14:19;;;;;;;11.75;6.47;;;5.50;99.90;;;;;;4955418;29;20047;-90
2022/01/20 03:16:46;;;;;;;11.32;5.57;;;5.40;99.90;;;;;;4962059;29;20076;-89
2022/01/20 03:19:13;;;;;;;15.77;6.65;;;5.50;99.90;;;;;;4962316;29;20031;-91
2022/01/20 03:21:40;;;;;;;13.02;6.43;;;5.60;99.90;;;;;;4954646;29;20031;-88
2022/01/20 03:24:09;;;;;;;11.30;6.00;;;5.50;99.90;;;;;;4955051;29;20091;-88
2022/01/20 03:26:38;;;;;;;9.93;6.10;;;5.50;99.90;;;;;;4940066;29;20503;-88
2022/01/20 03:29:06;;;;;;;15.70;6.50;;;5.50;99.90;;;;;;4961984;29;20095;-90
2022/01/20 03:31:33;;;;;;;11.68;6.60;;;5.50;99.90;;;;;;4958741;29;20027;-90
2022/01/20 03:34:00;;;;;;;15.70;7.47;;;5.50;99.90;;;;;;4972220;29;20531;-90
2022/01/20 03:36:26;;;;;;;17.45;6.97;;;5.50;99.90;;;;;;4935416;29;20091;-91
2022/01/20 03:39:12;;;;;;;14.55;7.07;;;5.50;99.90;;;;;;4950483;29;20032;-89
2022/01/20 03:41:38;;;;;;;14.52;6.43;;;5.50;99.90;;;;;;4935169;29;20039;-90
2022/01/20 03:44:16;;;;;;;13.27;7.07;;;5.50;99.90;;;;;;4952751;29;20027;-89
2022/01/20 03:46:42;;;;;;;11.18;6.22;;;5.60;99.90;;;;;;4957552;29;20038;-90
2022/01/20 03:49:13;;;;;;;10.77;5.88;;;5.60;99.90;;;;;;4958664;29;20079;-90
2022/01/20 03:51:39;;;;;;;13.27;6.35;;;5.60;99.90;;;;;;4954754;29;20046;-89
2022/01/20 03:54:05;;;;;;;14.05;6.45;;;5.60;99.90;;;;;;4957329;29;20016;-89
2022/01/20 03:56:50;;;;;;;10.43;5.88;;;5.70;99.90;;;;;;4960574;29;20116;-88
2022/01/20 03:59:40;;;;;;;12.15;6.32;;;5.70;99.90;;;;;;4943977;29;20020;-89
2022/01/20 04:02:07;;;;;;;10.52;6.10;;;5.80;99.90;;;;;;4961388;29;20120;-88
2022/01/20 04:04:51;;;;;;;11.95;6.05;;;5.80;99.90;;;;;;4961271;29;20023;-90
2022/01/20 04:07:21;;;;;;;13.32;5.75;;;5.80;99.90;;;;;;4944399;29;20028;-88
2022/01/20 04:09:48;;;;;;;12.30;5.75;;;5.80;99.90;;;;;;4944323;29;20016;-89
2022/01/20 04:12:13;;;;;;;12.10;6.35;;;5.80;99.90;;;;;;4960701;29;20035;-89
2022/01/20 04:14:46;;;;;;;13.57;6.35;;;5.80;99.90;;;;;;4961711;29;20028;-89
2022/01/20 04:17:17;;;;;;;11.15;6.55;;;5.80;99.90;;;;;;4961870;29;20023;-90
2022/01/20 04:19:43;;;;;;;13.35;6.60;;;5.80;99.90;;;;;;4961786;29;20047;-90
2022/01/20 04:22:11;;;;;;;13.63;6.35;;;5.80;99.90;;;;;;4961884;29;20064;-90
2022/01/20 04:24:37;;;;;;;11.77;5.93;;;5.70;99.90;;;;;;4961092;29;20347;-90
2022/01/20 04:27:04;;;;;;;14.32;5.63;;;5.70;99.90;;;;;;4961753;29;20015;-89
2022/01/20 04:29:34;;;;;;;11.80;6.20;;;5.80;99.90;;;;;;4961149;29;20067;-89
2022/01/20 04:32:00;;;;;;;11.07;6.18;;;5.80;99.90;;;;;;4960912;29;20032;-89
2022/01/20 04:34:26;;;;;;;11.75;5.70;;;5.80;99.90;;;;;;4961063;29;20027;-89
2022/01/20 04:36:54;;;;;;;10.43;5.22;;;5.80;99.90;;;;;;4960917;29;20028;-90
2022/01/20 04:39:23;;;;;;;12.63;5.47;;;5.80;99.90;;;;;;4976497;28;20024;-90
2022/01/20 04:41:51;;;;;;;12.77;4.95;;;5.80;99.90;;;;;;4961597;29;20034;-91
2022/01/20 04:44:31;;;;;;;15.93;6.00;;;5.80;99.90;;;;;;4960882;29;20027;-89
2022/01/20 04:47:27;;;;;;;10.25;5.53;;;5.80;99.90;;;;;;4957520;29;20028;-91
2022/01/20 04:58:02;;;;;;;8.70;5.25;;;5.70;99.90;;;;;;4960796;29;20062;-90
2022/01/20 05:00:28;;;;;;;8.82;5.30;;;5.70;99.90;;;;;;4976439;28;20071;-91
2022/01/20 05:03:13;;;;;;;13.57;5.43;;;5.70;99.90;;;;;;4961168;29;20066;-90
2022/01/20 05:05:39;;;;;;;13.02;5.63;;;5.80;99.90;;;;;;4960309;29;20044;-90
2022/01/20 05:08:21;;;;;;;11.05;5.55;;;5.70;99.90;;;;;;4960613;29;20030;-89
2022/01/20 05:10:47;;;;;;;10.40;5.55;;;5.70;99.90;;;;;;4976429;28;20040;-89
2022/01/20 05:13:23;;;;;;;12.73;5.15;;;5.70;99.90;;;;;;4960634;29;20056;-89
2022/01/20 05:15:49;;;;;;;9.32;4.78;;;5.70;99.90;;;;;;4960664;29;20023;-89
2022/01/20 05:18:15;;;;;;;18.13;5.72;;;5.70;99.90;;;;;;4959822;29;20099;-89
2022/01/20 05:20:41;;;;;;;10.93;5.32;;;5.70;99.90;;;;;;4976574;28;20088;-89
2022/01/20 05:23:08;;;;;;;9.50;5.03;;;5.70;99.90;;;;;;4944549;29;20404;-90
2022/01/20 05:25:34;;;;;;;10.55;4.40;;;5.80;99.90;;;;;;4944244;29;20008;-90
2022/01/20 05:28:00;;;;;;;11.52;4.95;;;5.70;99.90;;;;;;4944160;29;20087;-89
2022/01/20 05:30:25;;;;;;;12.60;4.82;;;5.70;99.90;;;;;;4943979;29;20015;-89
2022/01/20 05:33:21;;;;;;;7.85;4.43;;;5.80;99.90;;;;;;4960166;29;20099;-90
2022/01/20 05:35:47;;;;;;;9.20;4.60;;;5.70;99.90;;;;;;4944112;29;20291;-89
2022/01/20 05:38:13;;;;;;;9.75;4.47;;;5.60;99.90;;;;;;4959927;29;20044;-89
2022/01/20 05:40:40;;;;;;;8.38;4.65;;;5.60;99.90;;;;;;4944211;29;20024;-88
2022/01/20 05:43:05;;;;;;;8.95;5.10;;;5.60;99.90;;;;;;4960239;29;20036;-90
2022/01/20 05:45:33;;;;;;;11.90;5.22;;;5.60;99.90;;;;;;4965476;23;20050;-87
2022/01/20 05:49:08;;;;;;;9.80;4.75;;;5.60;99.90;;;;;;4958892;29;20054;-87
2022/01/20 05:51:18;;;;;;;9.73;4.80;;;5.60;99.90;;;;;;4944132;29;20043;-87
2022/01/20 05:53:44;;;;;;;11.07;4.93;;;5.60;99.90;;;;;;4970968;28;20024;-88
2022/01/20 05:56:10;;;;;;;7.43;4.22;;;5.60;99.90;;;;;;4959727;29;20020;-87
2022/01/20 05:58:37;;;;;;;8.27;4.50;;;5.50;99.90;;;;;;4959139;29;20039;-86
2022/01/20 06:01:08;;;;;;;10.93;4.72;;;5.60;99.90;;;;;;4959188;29;20012;-88
2022/01/20 06:03:37;;;;;;;8.40;4.55;;;5.50;99.90;;;;;;4959210;29;20032;-88
2022/01/20 06:06:06;;;;;;;10.23;4.32;;;5.50;99.90;;;;;;4957261;29;20019;-88
2022/01/20 06:08:33;;;;;;;8.38;4.47;;;5.40;99.90;;;;;;4956789;29;20042;-87
2022/01/20 06:11:00;;;;;;;8.85;4.88;;;5.50;99.90;;;;;;4957804;29;20012;-87
2022/01/20 06:13:27;;;;;;;15.20;4.68;;;5.40;99.90;;;;;;4958012;29;20035;-87
2022/01/20 06:15:53;;;;;;;9.98;4.65;;;5.50;99.90;;;;;;4941800;29;20023;-89
2022/01/20 06:18:19;;;;;;;9.15;4.38;;;5.40;99.90;;;;;;4957591;29;20024;-90
2022/01/20 06:20:51;;;;;;;9.48;4.70;;;5.40;99.90;;;;;;4942840;29;20036;-89
2022/01/20 06:23:19;;;;;;;10.13;4.78;;;5.40;99.90;;;;;;4958103;29;20059;-89
2022/01/20 06:25:46;;;;;;;7.72;3.83;;;5.40;99.90;;;;;;4957687;29;20035;-88
2022/01/20 06:28:14;;;;;;;9.02;3.95;;;5.40;99.90;;;;;;4957744;29;20035;-88
2022/01/20 06:30:40;;;;;;;10.27;3.97;;;5.30;99.90;;;;;;4955424;29;20031;-87
2022/01/20 06:33:07;;;;;;;8.15;4.05;;;5.30;99.90;;;;;;4952246;29;20031;-88
2022/01/20 06:35:41;;;;;;;18.13;4.18;;;5.30;99.90;;;;;;4938272;29;20512;-88
2022/01/20 06:38:08;;;;;;;7.30;4.55;;;5.40;99.90;;;;;;4958005;29;20064;-88
2022/01/20 06:40:36;;;;;;;7.18;3.78;;;5.30;99.90;;;;;;4961104;29;20016;-88
2022/01/20 06:43:02;;;;;;;7.85;3.65;;;5.30;99.90;;;;;;4957068;29;20070;-88
2022/01/20 06:45:29;;;;;;;10.38;4.32;;;5.30;99.90;;;;;;4940082;29;20042;-88
2022/01/20 06:48:05;;;;;;;6.78;4.05;;;5.40;99.90;;;;;;4939978;29;20063;-89
2022/01/20 06:50:34;;;;;;;8.40;4.28;;;5.40;99.90;;;;;;4956464;29;20043;-87
2022/01/20 06:53:01;;;;;;;6.90;3.95;;;5.40;99.90;;;;;;4956163;29;20023;-86
2022/01/20 06:55:27;;;;;;;8.55;4.22;;;5.30;99.90;;;;;;4955920;29;20050;-88
2022/01/20 06:57:53;;;;;;;7.97;4.20;;;5.30;99.90;;;;;;4954543;29;20047;-88
2022/01/20 07:00:22;;;;;;;7.60;4.18;;;5.20;99.90;;;;;;4953210;29;20511;-88
2022/01/20 07:02:50;;;;;;;8.60;4.63;;;5.20;99.90;;;;;;4937897;29;20012;-88
2022/01/20 07:05:19;;;;;;;6.88;4.00;;;5.30;99.90;;;;;;4957068;29;20075;-88
2022/01/20 07:07:46;;;;;;;9.30;4.97;;;5.30;99.90;;;;;;4926139;29;20030;-88
2022/01/20 07:10:20;;;;;;;8.60;4.32;;;5.30;99.90;;;;;;4941449;29;20028;-88
2022/01/20 07:12:54;;;;;;;9.77;4.38;;;5.20;99.90;;;;;;4958041;29;20023;-87
2022/01/20 07:15:20;;;;;;;9.95;4.30;;;5.20;99.90;;;;;;4941717;29;20158;-86
2022/01/20 07:17:48;;;;;;;7.43;4.38;;;5.20;99.90;;;;;;4957899;29;20036;-85
2022/01/20 07:20:16;;;;;;;9.18;4.65;;;5.20;99.90;;;;;;4954216;29;20047;-87
2022/01/20 07:23:02;;;;;;;9.73;4.53;;;5.20;99.90;;;;;;4958451;29;20087;-86
2022/01/20 07:25:32;;;;;;;5.35;3.72;;;5.20;99.90;;;;;;4935517;29;20069;-85
2022/01/20 07:28:13;;;;;;;5.97;3.83;;;5.20;99.90;;;;;;4938134;29;20031;-86
2022/01/20 07:30:39;;;;;;;7.25;4.47;;;5.20;99.90;;;;;;4951802;29;20070;-85
2022/01/20 07:33:05;;;;;;;7.82;3.78;;;5.20;99.90;;;;;;4950313;29;20036;-86
2022/01/20 07:35:32;;;;;;;7.18;4.25;;;5.20;99.90;;;;;;4951404;29;20389;-86
2022/01/20 07:37:58;;;;;;;7.15;4.03;;;5.20;99.90;;;;;;4948833;29;20028;-86
2022/01/20 07:40:24;;;;;;;9.65;4.30;;;5.20;99.90;;;;;;4967271;28;20055;-86
2022/01/20 07:42:50;;;;;;;7.60;3.65;;;5.20;99.90;;;;;;4968480;29;20057;-86
2022/01/20 07:45:28;;;;;;;6.97;3.90;;;5.20;99.90;;;;;;4953859;29;20047;-86
2022/01/20 07:48:16;;;;;;;8.48;3.97;;;5.20;99.90;;;;;;4968554;29;20031;-86
2022/01/20 07:50:43;;;;;;;5.88;3.60;;;5.20;99.90;;;;;;4957833;29;20111;-84
2022/01/20 07:53:09;;;;;;;5.28;3.35;;;5.20;99.90;;;;;;4949073;29;20095;-84
2022/01/20 07:55:38;;;;;;;6.32;3.30;;;5.30;99.90;;;;;;4932607;29;20027;-85
2022/01/20 07:58:05;;;;;;;5.53;3.55;;;5.20;99.90;;;;;;4952141;29;20026;-82
2022/01/20 08:00:40;;;;;;;7.20;3.35;;;5.20;99.90;;;;;;4954966;28;20032;-84
2022/01/20 08:03:06;;;;;;;7.68;3.30;;;5.30;99.90;;;;;;4952773;29;20055;-86
2022/01/20 08:05:41;;;;;;;6.80;3.22;;;5.30;99.90;;;;;;4951164;29;20027;-85
2022/01/20 08:08:07;;;;;;;7.07;3.60;;;5.20;99.90;;;;;;4952721;29;20036;-82
2022/01/20 08:10:35;;;;;;;6.32;3.13;;;5.30;99.90;;;;;;4943239;29;20043;-85
2022/01/20 08:13:03;;;;;;;6.50;3.28;;;5.20;99.90;;;;;;4957967;29;20047;-84
2022/01/20 08:15:29;;;;;;;5.95;2.83;;;5.20;99.90;;;;;;4958039;29;20020;-84
2022/01/20 08:18:18;;;;;;;5.00;2.75;;;5.20;99.90;;;;;;4956192;29;20044;-84
2022/01/20 08:20:43;;;;;;;6.63;3.47;;;5.30;99.90;;;;;;4956729;29;20082;-84
2022/01/20 08:23:12;;;;;;;6.50;3.35;;;5.20;99.90;;;;;;4957955;29;20035;-87
2022/01/20 08:25:38;;;;;;;6.85;3.60;;;5.30;99.90;;;;;;4941813;29;20064;-84
2022/01/20 08:28:04;;;;;;;5.70;3.15;;;5.30;99.90;;;;;;4940299;29;20016;-86
2022/01/20 08:30:35;;;;;;;5.72;3.10;;;5.30;99.90;;;;;;4956474;29;20024;-85
2022/01/20 08:33:01;;;;;;;5.88;3.13;;;5.40;99.90;;;;;;4956358;29;20036;-84
2022/01/20 08:35:47;;;;;;;8.20;3.78;;;5.40;99.90;;;;;;4943571;29;20036;-87
2022/01/20 08:38:21;;;;;;;5.30;3.08;;;5.50;99.90;;;;;;4949761;29;20028;-85
2022/01/20 08:40:47;;;;;;;6.07;3.53;;;5.50;99.90;;;;;;4950258;29;20043;-85
2022/01/20 08:43:13;;;;;;;6.00;3.20;;;5.50;99.90;;;;;;4934634;29;20035;-87
2022/01/20 08:45:43;;;;;;;4.93;2.95;;;5.50;99.90;;;;;;4951620;29;20062;-87
2022/01/20 08:48:13;;;;;;;5.28;3.10;;;5.40;99.90;;;;;;4953404;29;20047;-86
2022/01/20 08:51:07;;;;;;;5.35;2.80;;;5.50;99.90;;;;;;4957856;29;20047;-86
2022/01/20 08:53:42;;;;;;;6.03;3.33;;;5.50;99.90;;;;;;4958088;29;20107;-86
2022/01/20 08:56:10;;;;;;;5.28;2.72;;;5.60;99.90;;;;;;4953225;29;20458;-84
2022/01/20 08:58:36;;;;;;;3.75;2.60;;;5.60;99.90;;;;;;4948177;29;20039;-85
2022/01/20 09:01:05;;;;;;;7.60;3.08;;;5.60;99.90;;;;;;4947286;29;20036;-87
2022/01/20 09:03:33;;;;;;;4.47;2.95;;;5.60;99.90;;;;;;4949313;29;20075;-86
2022/01/20 09:06:02;;;;;;;4.00;2.60;;;5.60;99.90;;;;;;4948364;29;20028;-85
2022/01/20 09:08:35;;;;;;;3.33;2.47;;;5.70;99.90;;;;;;4948050;29;20087;-84
2022/01/20 09:11:17;;;;;;;4.50;2.63;;;5.60;99.90;;;;;;4933076;29;20067;-86
2022/01/20 09:16:28;;;;;;;13.20;2.70;;;5.50;99.90;;;;;;4945642;29;20038;-86
2022/01/20 09:19:01;;;;;;;6.93;3.05;;;5.50;99.90;;;;;;4949050;29;20079;-86
2022/01/20 09:21:30;;;;;;;5.07;2.88;;;5.40;99.90;;;;;;4950331;29;20233;-86
2022/01/20 09:23:59;;;;;;;5.72;2.67;;;5.30;99.90;;;;;;4947066;29;20038;-85
2022/01/20 09:26:25;;;;;;;6.30;3.10;;;5.30;99.90;;;;;;4945397;29;20020;-88
2022/01/20 09:28:54;;;;;;;4.32;2.95;;;5.30;99.90;;;;;;4945470;29;20027;-87
2022/01/20 09:31:25;;;;;;;5.13;2.35;;;5.50;99.90;;;;;;4946517;29;20130;-85
2022/01/20 09:33:54;;;;;;;7.07;2.75;;;5.60;99.90;;;;;;4946974;29;20220;-86
2022/01/20 09:36:21;;;;;;;5.18;2.78;;;5.70;99.90;;;;;;4958106;29;20100;-84
2022/01/20 09:38:48;;;;;;;5.82;2.50;;;5.90;99.90;;;;;;4951596;29;20042;-83
2022/01/20 09:41:23;;;;;;;4.72;2.72;;;5.70;99.90;;;;;;4946244;29;20069;-83
2022/01/20 09:43:51;;;;;;;7.90;2.70;;;5.60;99.90;;;;;;4951493;29;20544;-87
2022/01/20 09:46:18;;;;;;;5.70;2.40;;;5.60;99.90;;;;;;4949134;29;20028;-87
2022/01/20 09:48:52;;;;;;;4.70;2.88;;;5.70;99.90;;;;;;4930680;29;20030;-86
2022/01/20 09:51:33;;;;;;;5.47;2.83;;;5.80;99.90;;;;;;4938786;29;20046;-85
2022/01/20 09:54:18;;;;;;;4.95;3.17;;;5.90;99.90;;;;;;4952494;29;20024;-85
2022/01/20 09:56:57;;;;;;;2.67;2.08;;;6.10;99.90;;;;;;4952982;29;20032;-86
2022/01/20 09:59:24;;;;;;;4.70;2.70;;;6.20;99.90;;;;;;4954762;29;20027;-88
2022/01/20 10:01:56;;;;;;;4.50;2.40;;;6.30;99.90;;;;;;4955203;29;20036;-88
2022/01/20 10:04:30;;;;;;;5.70;3.00;;;6.40;99.90;;;;;;4954457;29;20094;-88
2022/01/20 10:07:02;;;;;;;5.30;2.40;;;6.40;99.90;;;;;;4963604;29;20058;-88
2022/01/20 10:09:34;;;;;;;4.45;2.50;;;6.40;99.90;;;;;;4933915;29;20500;-89
2022/01/20 10:12:14;;;;;;;7.88;2.90;;;6.20;99.90;;;;;;4948483;29;20059;-90
2022/01/20 10:15:01;;;;;;;3.22;2.45;;;6.30;99.90;;;;;;4940831;29;20024;-90
2022/01/20 10:17:46;;;;;;;;;;;6.40;99.90;;;;;;4943698;29;20524;-89
2022/01/20 10:20:15;;;;;;;5.25;2.13;;;6.50;99.90;;;;;;4958141;29;19899;-88
2022/01/20 10:22:57;;;;;;;6.38;2.20;;;6.60;99.90;;;;;;4942248;29;20032;-87
2022/01/20 10:26:05;;;;;;;5.80;2.80;;;6.70;99.90;;;;;;4948074;29;20048;-88
2022/01/20 10:28:56;;;;;;;3.92;2.60;;;6.60;99.90;;;;;;4939083;29;20036;-89
2022/01/20 10:31:46;;;;;;;4.43;2.15;;;6.90;99.90;;;;;;4944035;29;20055;-88
2022/01/20 10:34:30;;;;;;;3.92;2.47;;;7.00;99.90;;;;;;4929258;29;20032;-91
2022/01/20 10:37:13;;;;;;;4.50;2.58;;;7.00;99.90;;;;;;4945652;29;20111;-90
2022/01/20 10:39:46;;;;;;;3.58;2.40;;;7.10;99.90;;;;;;4946188;29;20028;-90
2022/01/20 10:42:26;;;;;;;3.67;2.30;;;7.20;99.90;;;;;;4930680;29;20063;-90
2022/01/20 10:44:56;;;;;;;2.92;2.00;;;7.60;99.90;;;;;;4931641;29;20032;-89
2022/01/20 10:47:27;;;;;;;3.83;2.20;;;8.90;99.90;;;;;;4947445;29;20075;-89
2022/01/20 10:49:55;;;;;;;5.78;2.22;;;10.20;99.90;;;;;;4949890;29;20036;-87
2022/01/20 10:52:33;;;;;;;8.63;2.10;;;10.80;99.90;;;;;;4944669;29;20036;-88
2022/01/20 10:54:59;;;;;;;5.82;2.30;;;11.40;99.90;;;;;;4957817;29;20024;-85
2022/01/20 10:57:33;;;;;;;3.08;1.90;;;12.10;99.30;;;;;;4960738;29;20034;-87
2022/01/20 11:00:11;;;;;;;4.13;2.15;;;12.50;98.30;;;;;;4959955;29;20042;-87
2022/01/20 11:02:56;;;;;;;3.03;2.15;;;12.40;97.60;;;;;;4945058;29;20039;-87
2022/01/20 11:05:24;;;;;;;2.60;1.92;;;12.30;97.20;;;;;;4961329;28;20062;-87
2022/01/20 11:07:52;;;;;;;4.07;2.45;;;13.10;96.20;;;;;;4960501;29;20047;-86
2022/01/20 11:10:19;;;;;;;4.18;2.47;;;13.50;95.30;;;;;;4959838;29;20027;-87
2022/01/20 11:12:58;;;;;;;4.00;2.15;;;13.60;94.90;;;;;;4961111;29;20015;-87
2022/01/20 11:15:34;;;;;;;2.33;1.65;;;14.40;93.80;;;;;;4960381;29;20032;-88
2022/01/20 11:18:04;;;;;;;2.90;1.98;;;15.20;92.10;;;;;;4959762;29;20035;-89
2022/01/20 11:20:41;;;;;;;2.60;2.00;;;14.80;91.50;;;;;;4955007;29;20020;-89
2022/01/20 11:23:08;;;;;;;3.45;2.45;;;14.90;91.00;;;;;;4953536;29;20028;-89
2022/01/20 11:25:47;;;;;;;4.78;2.60;;;14.50;91.40;;;;;;4956033;29;20031;-89
2022/01/20 11:28:59;;;;;;;4.05;2.40;;;12.80;92.20;;;;;;4936589;29;20032;-89
2022/01/20 11:31:44;;;;;;;;;;;12.00;94.30;;;;;;4961030;29;20443;-88
2022/01/20 11:34:32;;;;;;;;;;;12.60;93.70;;;;;;4973370;28;19910;-89
2022/01/20 11:37:07;;;;;;;7.72;2.65;;;13.70;92.60;;;;;;4974805;28;20394;-89
2022/01/20 11:39:33;;;;;;;5.43;2.05;;;14.00;91.40;;;;;;4973941;29;20046;-87
2022/01/20 11:42:00;;;;;;;6.03;2.08;;;14.60;90.80;;;;;;4974916;28;20039;-87
2022/01/20 11:44:29;;;;;;;3.35;2.25;;;14.20;90.60;;;;;;4958112;28;20038;-85
2022/01/20 11:47:05;;;;;;;4.55;2.33;;;14.00;90.60;;;;;;4981458;23;20508;-88
2022/01/20 11:49:37;;;;;;;4.57;2.38;;;14.80;89.50;;;;;;4949547;29;20031;-89
2022/01/20 11:52:03;;;;;;;7.18;2.72;;;15.20;86.70;;;;;;4950956;29;20030;-89
2022/01/20 11:54:33;;;;;;;11.73;3.20;;;14.50;87.70;;;;;;4947888;29;20031;-87
2022/01/20 11:57:18;;;;;;;4.78;2.15;;;13.20;90.00;;;;;;4940200;29;20028;-88
2022/01/20 11:59:55;;;;;;;3.58;1.90;;;11.20;91.90;;;;;;4930739;29;20024;-87
2022/01/20 12:02:33;;;;;;;8.77;2.10;;;10.40;93.10;;;;;;4932083;29;20032;-88
2022/01/20 12:05:16;;;;;;;7.47;2.10;;;9.70;94.20;;;;;;4952660;29;20023;-87
2022/01/20 12:07:47;;;;;;;9.68;2.60;;;9.20;95.30;;;;;;4951791;28;20066;-86
2022/01/20 12:10:26;;;;;;;8.40;2.65;;;9.00;96.10;;;;;;4961825;29;20023;-88
2022/01/20 12:12:53;;;;;;;5.65;2.10;;;8.70;96.50;;;;;;4977543;28;20020;-87
2022/01/20 12:15:22;;;;;;;7.03;2.00;;;8.50;96.50;;;;;;4961997;29;20083;-88
2022/01/20 12:21:46;;;;;;;4.85;2.05;;;8.10;97.00;;;;;;4961590;29;20109;-89
2022/01/20 12:24:12;;;;;;;3.83;2.22;;;8.00;97.30;;;;;;4961103;29;20036;-89
2022/01/20 12:26:38;;;;;;;4.28;2.10;;;7.80;97.70;;;;;;4960968;29;20035;-89
2022/01/20 12:29:09;;;;;;;7.30;2.10;;;7.70;98.20;;;;;;4961000;29;20079;-88
2022/01/20 12:31:55;;;;;;;4.40;1.60;;;7.50;98.50;;;;;;4961054;29;20047;-88
2022/01/20 12:34:23;;;;;;;4.57;2.10;;;7.50;98.70;;;;;;4960629;29;20027;-91
2022/01/20 12:36:57;;;;;;;4.85;2.03;;;7.30;99.00;;;;;;4977545;23;20035;-90
2022/01/20 12:39:30;;;;;;;4.85;1.98;;;7.30;99.00;;;;;;4962558;29;20073;-87
2022/01/20 12:42:05;;;;;;;13.27;2.65;;;7.50;99.60;;;;;;4977749;29;20083;-88
2022/01/20 12:44:40;;;;;;;5.43;2.70;;;7.70;99.50;;;;;;4945136;29;20070;-87
2022/01/20 12:47:06;;;;;;;11.43;3.10;;;7.80;99.40;;;;;;4961169;29;20036;-88
2022/01/20 12:49:32;;;;;;;5.43;1.90;;;7.80;99.60;;;;;;4961008;29;20020;-89
2022/01/20 12:51:58;;;;;;;6.97;2.50;;;7.70;99.80;;;;;;4960813;29;20099;-87
2022/01/20 12:54:30;;;;;;;4.32;2.90;;;7.80;99.70;;;;;;4960145;29;20028;-88
2022/01/20 12:56:59;;;;;;;5.35;2.53;;;7.70;99.90;;;;;;4971945;28;20019;-87
2022/01/20 12:59:25;;;;;;;4.88;2.65;;;7.80;99.90;;;;;;4979327;28;20031;-87
2022/01/20 13:01:53;;;;;;;3.42;2.03;;;7.70;99.90;;;;;;4979826;28;20079;-89
2022/01/20 13:09:53;;;;;;;8.40;2.70;;;7.50;99.90;;;;;;4958273;27;20041;-91
2022/01/20 13:12:35;;;;;;;3.75;2.30;;;7.40;99.90;;;;;;5004702;23;20115;-91
2022/01/20 13:15:04;;;;;;;6.63;2.35;;;7.50;99.90;;;;;;5033809;23;20046;-91
2022/01/20 13:17:34;;;;;;;4.45;2.00;;;7.50;99.80;;;;;;4962261;29;20007;-91
2022/01/20 13:20:11;;;;;;;3.20;2.10;;;7.30;99.90;;;;;;4961450;29;20015;-92
2022/01/20 13:22:42;;;;;;;6.70;2.20;;;7.30;99.90;;;;;;4945544;29;20059;-92
2022/01/20 13:25:15;;;;;;;8.80;2.47;;;7.20;99.90;;;;;;5062146;23;20038;-90
2022/01/20 13:28:03;;;;;;;8.35;2.58;;;7.20;99.90;;;;;;5131185;23;20056;-90
2022/01/20 13:30:39;;;;;;;5.72;2.20;;;7.20;99.90;;;;;;4942763;29;20008;-93
2022/01/20 13:33:17;;;;;;;5.32;2.45;;;7.20;99.90;;;;;;4941146;29;20048;-89
2022/01/20 13:35:52;;;;;;;7.00;2.85;;;7.20;99.90;;;;;;4952672;29;20041;-92
2022/01/20 13:38:18;;;;;;;5.65;2.22;;;7.20;99.90;;;;;;4935873;29;20040;-91
2022/01/20 13:40:47;;;;;;;2.67;1.90;;;7.10;99.90;;;;;;4905027;29;20057;-92
2022/01/20 13:48:38;;;;;;;6.47;1.90;;;6.90;99.90;;;;;;5726349;23;20047;-91
2022/01/20 13:51:06;;;;;;;4.15;2.03;;;6.90;99.90;;;;;;5010252;23;20050;-92
2022/01/20 13:53:35;;;;;;;2.80;1.30;;;6.90;99.90;;;;;;4957869;29;20028;-91
2022/01/20 13:56:11;;;;;;;1.88;0.73;;;6.50;99.90;;;;;;4953098;29;20040;-90
2022/01/20 13:58:38;;;;;;;3.20;0.80;;;5.90;99.90;;;;;;4936652;29;20088;-89
2022/01/20 14:01:08;;;;;;;4.43;1.80;;;5.40;99.90;;;;;;4939999;29;20063;-90
2022/01/20 14:04:05;;;;;;;7.40;2.28;;;4.80;99.90;;;;;;4925023;29;20032;-91
2022/01/20 14:06:31;;;;;;;2.28;0.65;;;4.30;99.90;;;;;;5174326;23;20036;-91
2022/01/20 14:09:04;;;;;;;2.58;0.70;;;3.90;99.90;;;;;;5051079;23;20032;-93
2022/01/20 14:11:33;;;;;;;2.08;1.00;;;3.40;99.90;;;;;;4957798;29;20071;-91
2022/01/20 14:14:04;;;;;;;3.70;0.68;;;3.20;99.90;;;;;;4941854;29;20008;-92
2022/01/20 14:16:32;;;;;;;1.73;0.75;;;3.00;99.90;;;;;;4938780;29;20028;-93
2022/01/20 14:19:06;;;;;;;6.47;1.02;;;2.70;99.90;;;;;;4936847;29;20036;-90
2022/01/20 14:21:32;;;;;;;1.73;0.70;;;2.50;99.90;;;;;;4920413;29;20028;-88
2022/01/20 14:24:00;;;;;;;4.68;1.00;;;2.20;99.90;;;;;;4928472;29;20047;-90
2022/01/20 14:26:32;;;;;;;5.68;1.00;;;2.10;99.90;;;;;;4923699;29;20016;-90
2022/01/20 14:28:58;;;;;;;2.30;1.05;;;1.90;99.90;;;;;;4939956;29;20040;-91
2022/01/20 14:31:24;;;;;;;3.22;1.30;;;1.80;99.90;;;;;;4939587;29;20056;-89
2022/01/20 14:33:52;;;;;;;4.88;0.90;;;1.70;99.90;;;;;;4945720;28;20096;-90
2022/01/20 14:36:21;;;;;;;2.95;1.30;;;1.50;99.90;;;;;;5380405;23;21036;-88